sensor_id;sensor_type;location;lat;lon;timestamp;temperature;humidity
18268;DHT22;9260;49.998;19.880;2022-12-07T00:06:32;1.20;99.90
18268;DHT22;9260;49.998;19.880;2022-12-07T00:16:38;1.30;99.90
18268;DHT22;9260;49.998;19.880;2022-12-07T00:26:42;1.30;99.90
18268;DHT22;9260;49.998;19.880;2022-12-07T00:36:49;1.30;99.90
18268;DHT22;9260;49.998;19.880;2022-12-07T00:46:53;1.30;99.90
18268;DHT22;9260;49.998;19.880;2022-12-07T00:56:59;1.30;99.90
18268;DHT22;9260;49.998;19.880;2022-12-07T01:07:04;1.30;99.90
18268;DHT22;9260;49.998;19.880;2022-12-07T01:17:09;1.30;99.90
18268;DHT22;9260;49.998;19.880;2022-12-07T01:27:13;1.30;99.90
18268;DHT22;9260;49.998;19.880;2022-12-07T01:37:18;1.40;99.90
18268;DHT22;9260;49.998;19.880;2022-12-07T01:47:22;1.40;99.90
18268;DHT22;9260;49.998;19.880;2022-12-07T01:57:28;1.30;99.90
18268;DHT22;9260;49.998;19.880;2022-12-07T02:07:32;1.30;99.90
18268;DHT22;9260;49.998;19.880;2022-12-07T02:17:47;1.30;99.90
18268;DHT22;9260;49.998;19.880;2022-12-07T02:28:00;1.20;99.90
18268;DHT22;9260;49.998;19.880;2022-12-07T02:38:13;1.20;99.90
18268;DHT22;9260;49.998;19.880;2022-12-07T02:48:20;1.10;99.90
18268;DHT22;9260;49.998;19.880;2022-12-07T02:58:35;1.10;99.90
18268;DHT22;9260;49.998;19.880;2022-12-07T03:08:50;1.10;99.90
18268;DHT22;9260;49.998;19.880;2022-12-07T03:19:03;1.20;99.90
18268;DHT22;9260;49.998;19.880;2022-12-07T03:29:14;1.20;99.90
18268;DHT22;9260;49.998;19.880;2022-12-07T03:39:25;1.20;99.90
18268;DHT22;9260;49.998;19.880;2022-12-07T03:49:37;1.10;99.90
18268;DHT22;9260;49.998;19.880;2022-12-07T03:59:46;1.10;99.90
18268;DHT22;9260;49.998;19.880;2022-12-07T04:09:51;1.10;99.90
18268;DHT22;9260;49.998;19.880;2022-12-07T04:19:58;1.00;99.90
18268;DHT22;9260;49.998;19.880;2022-12-07T04:30:02;1.00;99.90
18268;DHT22;9260;49.998;19.880;2022-12-07T04:40:09;1.00;99.90
18268;DHT22;9260;49.998;19.880;2022-12-07T04:50:14;1.10;99.90
18268;DHT22;9260;49.998;19.880;2022-12-07T05:00:20;1.20;99.90
18268;DHT22;9260;49.998;19.880;2022-12-07T05:10:24;1.40;99.90
18268;DHT22;9260;49.998;19.880;2022-12-07T05:20:29;1.30;99.90
18268;DHT22;9260;49.998;19.880;2022-12-07T05:30:33;1.40;99.90
18268;DHT22;9260;49.998;19.880;2022-12-07T05:40:38;1.40;99.90
18268;DHT22;9260;49.998;19.880;2022-12-07T05:50:42;1.40;99.90
18268;DHT22;9260;49.998;19.880;2022-12-07T06:00:47;1.40;99.90
18268;DHT22;9260;49.998;19.880;2022-12-07T06:10:52;1.40;99.90
18268;DHT22;9260;49.998;19.880;2022-12-07T06:21:17;1.30;99.90
18268;DHT22;9260;49.998;19.880;2022-12-07T06:31:21;1.20;99.90
18268;DHT22;9260;49.998;19.880;2022-12-07T06:41:26;1.10;99.90
18268;DHT22;9260;49.998;19.880;2022-12-07T06:51:31;1.10;99.90
18268;DHT22;9260;49.998;19.880;2022-12-07T07:01:36;1.10;99.90
18268;DHT22;9260;49.998;19.880;2022-12-07T07:11:40;1.10;99.90
18268;DHT22;9260;49.998;19.880;2022-12-07T07:21:45;1.10;99.90
18268;DHT22;9260;49.998;19.880;2022-12-07T07:31:49;1.10;99.90
18268;DHT22;9260;49.998;19.880;2022-12-07T07:41:54;1.00;99.90
18268;DHT22;9260;49.998;19.880;2022-12-07T07:52:01;1.00;99.90
18268;DHT22;9260;49.998;19.880;2022-12-07T08:02:09;1.00;99.90
18268;DHT22;9260;49.998;19.880;2022-12-07T08:12:17;1.00;99.90
18268;DHT22;9260;49.998;19.880;2022-12-07T08:22:22;1.00;99.90
18268;DHT22;9260;49.998;19.880;2022-12-07T08:32:26;1.20;99.90
18268;DHT22;9260;49.998;19.880;2022-12-07T08:42:31;1.40;99.90
18268;DHT22;9260;49.998;19.880;2022-12-07T08:52:40;1.40;99.90
18268;DHT22;9260;49.998;19.880;2022-12-07T09:02:46;1.60;99.90
18268;DHT22;9260;49.998;19.880;2022-12-07T09:12:50;2.00;99.90
18268;DHT22;9260;49.998;19.880;2022-12-07T09:22:55;2.20;99.90
18268;DHT22;9260;49.998;19.880;2022-12-07T09:32:59;2.50;99.90
18268;DHT22;9260;49.998;19.880;2022-12-07T09:43:04;2.90;99.90
18268;DHT22;9260;49.998;19.880;2022-12-07T09:53:09;2.70;99.90
18268;DHT22;9260;49.998;19.880;2022-12-07T10:03:18;2.60;99.90
18268;DHT22;9260;49.998;19.880;2022-12-07T10:13:33;2.60;99.90
18268;DHT22;9260;49.998;19.880;2022-12-07T10:23:41;2.80;99.90
18268;DHT22;9260;49.998;19.880;2022-12-07T10:33:50;2.90;99.90
18268;DHT22;9260;49.998;19.880;2022-12-07T10:43:57;3.30;99.90
18268;DHT22;9260;49.998;19.880;2022-12-07T10:54:10;3.70;99.90
18268;DHT22;9260;49.998;19.880;2022-12-07T11:04:24;3.90;99.90
18268;DHT22;9260;49.998;19.880;2022-12-07T11:14:39;4.10;99.90
18268;DHT22;9260;49.998;19.880;2022-12-07T11:24:52;5.70;99.90
18268;DHT22;9260;49.998;19.880;2022-12-07T11:35:05;6.10;99.90
18268;DHT22;9260;49.998;19.880;2022-12-07T11:45:17;6.60;99.90
18268;DHT22;9260;49.998;19.880;2022-12-07T11:55:29;8.00;99.90
18268;DHT22;9260;49.998;19.880;2022-12-07T12:05:39;6.40;99.90
18268;DHT22;9260;49.998;19.880;2022-12-07T12:16:00;5.30;99.90
18268;DHT22;9260;49.998;19.880;2022-12-07T12:26:17;5.00;99.90
18268;DHT22;9260;49.998;19.880;2022-12-07T12:36:26;4.70;99.90
18268;DHT22;9260;49.998;19.880;2022-12-07T12:46:52;4.30;99.90
18268;DHT22;9260;49.998;19.880;2022-12-07T12:56:59;3.60;99.90
18268;DHT22;9260;49.998;19.880;2022-12-07T13:07:13;3.30;99.90
18268;DHT22;9260;49.998;19.880;2022-12-07T13:18:02;2.90;99.90
18268;DHT22;9260;49.998;19.880;2022-12-07T13:28:15;2.90;99.90
18268;DHT22;9260;49.998;19.880;2022-12-07T13:38:25;3.70;99.90
18268;DHT22;9260;49.998;19.880;2022-12-07T13:48:35;6.90;99.90
18268;DHT22;9260;49.998;19.880;2022-12-07T13:58:46;5.50;99.90
18268;DHT22;9260;49.998;19.880;2022-12-07T14:09:05;4.90;99.90
18268;DHT22;9260;49.998;19.880;2022-12-07T14:29:51;3.10;99.90
18268;DHT22;9260;49.998;19.880;2022-12-07T14:39:55;2.10;99.90
18268;DHT22;9260;49.998;19.880;2022-12-07T14:50:00;1.70;99.90
18268;DHT22;9260;49.998;19.880;2022-12-07T15:00:09;1.80;99.90
18268;DHT22;9260;49.998;19.880;2022-12-07T15:10:20;1.80;99.90
18268;DHT22;9260;49.998;19.880;2022-12-07T15:20:25;1.80;99.90
18268;DHT22;9260;49.998;19.880;2022-12-07T15:30:31;1.80;99.90
18268;DHT22;9260;49.998;19.880;2022-12-07T15:40:35;1.80;99.90
18268;DHT22;9260;49.998;19.880;2022-12-07T15:50:40;1.80;99.90
18268;DHT22;9260;49.998;19.880;2022-12-07T16:00:44;1.70;99.90
18268;DHT22;9260;49.998;19.880;2022-12-07T16:10:50;1.70;99.90
18268;DHT22;9260;49.998;19.880;2022-12-07T16:20:54;1.70;99.90
18268;DHT22;9260;49.998;19.880;2022-12-07T16:31:02;1.60;99.90
18268;DHT22;9260;49.998;19.880;2022-12-07T16:41:07;1.70;99.90
18268;DHT22;9260;49.998;19.880;2022-12-07T16:51:14;1.70;99.90
18268;DHT22;9260;49.998;19.880;2022-12-07T17:01:19;1.80;99.90
18268;DHT22;9260;49.998;19.880;2022-12-07T17:11:28;1.90;99.90
18268;DHT22;9260;49.998;19.880;2022-12-07T17:21:33;1.90;99.90
18268;DHT22;9260;49.998;19.880;2022-12-07T17:31:39;1.50;99.90
18268;DHT22;9260;49.998;19.880;2022-12-07T17:41:51;1.00;99.90
18268;DHT22;9260;49.998;19.880;2022-12-07T17:52:14;0.70;99.90
18268;DHT22;9260;49.998;19.880;2022-12-07T18:02:35;0.30;99.90
18268;DHT22;9260;49.998;19.880;2022-12-07T18:12:40;0.00;99.90
18268;DHT22;9260;49.998;19.880;2022-12-07T18:22:52;0.30;99.90
18268;DHT22;9260;49.998;19.880;2022-12-07T18:32:58;0.70;99.90
18268;DHT22;9260;49.998;19.880;2022-12-07T18:43:01;0.90;99.90
18268;DHT22;9260;49.998;19.880;2022-12-07T18:53:07;1.00;99.90
18268;DHT22;9260;49.998;19.880;2022-12-07T19:03:10;1.00;99.90
18268;DHT22;9260;49.998;19.880;2022-12-07T19:13:16;0.70;99.90
18268;DHT22;9260;49.998;19.880;2022-12-07T19:23:20;0.60;99.90
18268;DHT22;9260;49.998;19.880;2022-12-07T19:33:28;0.70;99.90
18268;DHT22;9260;49.998;19.880;2022-12-07T19:43:31;0.80;99.90
18268;DHT22;9260;49.998;19.880;2022-12-07T19:53:37;0.90;99.90
18268;DHT22;9260;49.998;19.880;2022-12-07T20:03:40;1.00;99.90
18268;DHT22;9260;49.998;19.880;2022-12-07T20:13:46;1.00;99.90
18268;DHT22;9260;49.998;19.880;2022-12-07T20:23:49;1.20;99.90
18268;DHT22;9260;49.998;19.880;2022-12-07T20:33:56;1.30;99.90
18268;DHT22;9260;49.998;19.880;2022-12-07T20:44:01;1.40;99.90
18268;DHT22;9260;49.998;19.880;2022-12-07T20:54:06;1.50;99.90
18268;DHT22;9260;49.998;19.880;2022-12-07T21:04:11;1.50;99.90
18268;DHT22;9260;49.998;19.880;2022-12-07T21:14:17;1.40;99.90
18268;DHT22;9260;49.998;19.880;2022-12-07T21:24:21;1.30;99.90
18268;DHT22;9260;49.998;19.880;2022-12-07T21:34:26;1.30;99.90
18268;DHT22;9260;49.998;19.880;2022-12-07T21:44:29;1.40;99.90
18268;DHT22;9260;49.998;19.880;2022-12-07T21:54:35;1.50;99.90
18268;DHT22;9260;49.998;19.880;2022-12-07T22:04:39;1.60;99.90
18268;DHT22;9260;49.998;19.880;2022-12-07T22:14:45;1.70;99.90
18268;DHT22;9260;49.998;19.880;2022-12-07T22:25:08;1.70;99.90
18268;DHT22;9260;49.998;19.880;2022-12-07T22:35:14;1.70;99.90
18268;DHT22;9260;49.998;19.880;2022-12-07T22:45:18;1.70;99.90
18268;DHT22;9260;49.998;19.880;2022-12-07T22:55:23;1.60;99.90
18268;DHT22;9260;49.998;19.880;2022-12-07T23:05:27;1.60;99.90
18268;DHT22;9260;49.998;19.880;2022-12-07T23:15:34;1.60;99.90
18268;DHT22;9260;49.998;19.880;2022-12-07T23:25:39;1.50;99.90
18268;DHT22;9260;49.998;19.880;2022-12-07T23:35:44;1.40;99.90
18268;DHT22;9260;49.998;19.880;2022-12-07T23:45:48;1.40;99.90
18268;DHT22;9260;49.998;19.880;2022-12-07T23:55:54;1.40;99.90
